createdAt,value
2023-04-20T00:00:18.474Z,34.00
2023-04-20T00:02:47.644Z,33.67
2023-04-20T00:05:16.706Z,34.00
2023-04-20T00:07:46.358Z,32.67
2023-04-20T00:10:16.329Z,36.00
2023-04-20T00:12:45.044Z,34.00
2023-04-20T00:15:14.641Z,32.33
2023-04-20T00:17:44.721Z,36.67
2023-04-20T00:20:13.556Z,34.00
2023-04-20T00:22:43.315Z,30.00
2023-04-20T00:25:14.665Z,37.13
2023-04-20T00:27:45.624Z,37.33
2023-04-20T00:30:15.334Z,38.00
2023-04-20T00:32:44.097Z,34.00
2023-04-20T00:35:13.846Z,37.00
2023-04-20T00:37:41.749Z,36.00
2023-04-20T00:40:11.125Z,37.33
2023-04-20T00:42:41.718Z,36.50
2023-04-20T00:45:11.245Z,34.50
2023-04-20T00:47:40.134Z,36.00
2023-04-20T00:50:11.117Z,37.00
2023-04-20T00:52:41.383Z,37.00
2023-04-20T00:55:10.648Z,35.50
2023-04-20T00:57:38.633Z,34.00
2023-04-20T01:00:09.924Z,38.33
2023-04-20T01:02:38.877Z,37.00
2023-04-20T01:05:08.669Z,35.50
2023-04-20T01:07:38.225Z,37.00
2023-04-20T01:10:09.824Z,36.00
2023-04-20T01:12:39.395Z,36.67
2023-04-20T01:15:09.509Z,35.67
2023-04-20T01:17:40.234Z,33.50
2023-04-20T01:20:15.127Z,36.00
2023-04-20T01:22:54.777Z,31.67
2023-04-20T01:25:23.614Z,30.67
2023-04-20T01:27:53.147Z,33.33
2023-04-20T01:30:21.940Z,31.33
2023-04-20T01:32:51.608Z,35.00
2023-04-20T01:35:20.465Z,33.50
2023-04-20T01:37:50.090Z,35.00
2023-04-20T01:40:18.839Z,31.33
2023-04-20T01:42:48.398Z,30.33
2023-04-20T01:45:17.979Z,33.00
2023-04-20T01:47:46.699Z,36.67
2023-04-20T01:50:16.344Z,34.00
2023-04-20T01:52:45.905Z,31.67
2023-04-20T01:55:15.066Z,35.00
2023-04-20T01:57:44.938Z,35.67
2023-04-20T02:00:16.069Z,34.33
2023-04-20T02:02:44.991Z,33.33
2023-04-20T02:05:14.655Z,36.00
2023-04-20T02:07:43.420Z,34.00
2023-04-20T02:10:12.961Z,33.67
2023-04-20T02:12:41.890Z,36.00
2023-04-20T02:15:11.254Z,36.50
2023-04-20T02:17:41.996Z,36.00
2023-04-20T02:20:12.758Z,35.67
2023-04-20T02:22:41.659Z,31.00
2023-04-20T02:25:11.407Z,33.67
2023-04-20T02:27:41.096Z,32.33
2023-04-20T02:30:11.189Z,28.50
2023-04-20T02:32:40.207Z,29.50
2023-04-20T02:35:10.261Z,33.33
2023-04-20T02:37:39.791Z,32.00
2023-04-20T02:40:10.045Z,35.33
2023-04-20T02:42:39.600Z,34.00
2023-04-20T02:45:09.827Z,43.50
2023-04-20T02:47:38.720Z,35.50
2023-04-20T02:50:09.364Z,34.50
2023-04-20T02:52:38.148Z,34.00
2023-04-20T02:55:08.329Z,35.00
2023-04-20T02:57:37.885Z,36.00
2023-04-20T03:00:09.373Z,36.67
2023-04-20T03:02:39.172Z,33.67
2023-04-20T03:05:09.543Z,36.33
2023-04-20T03:07:38.290Z,34.67
2023-04-20T03:10:09.309Z,34.33
2023-04-20T03:12:38.052Z,34.00
2023-04-20T03:15:08.108Z,38.00
2023-04-20T03:17:37.693Z,34.00
2023-04-20T03:20:09.394Z,36.50
2023-04-20T03:22:38.203Z,36.00
2023-04-20T03:25:09.105Z,36.00
2023-04-20T03:27:38.629Z,35.00
2023-04-20T03:30:08.906Z,36.00
2023-04-20T03:32:38.590Z,32.00
2023-04-20T03:35:09.161Z,34.00
2023-04-20T03:37:38.896Z,26.00
2023-04-20T03:40:10.653Z,33.67
2023-04-20T03:42:40.162Z,34.67
2023-04-20T03:45:11.060Z,31.33
2023-04-20T03:47:40.863Z,36.00
2023-04-20T03:50:10.211Z,34.00
2023-04-20T03:52:38.940Z,34.50
2023-04-20T03:55:09.309Z,33.00
2023-04-20T03:57:39.570Z,34.33
2023-04-20T04:00:11.260Z,33.33
2023-04-20T04:02:40.946Z,33.00
2023-04-20T04:05:10.801Z,34.00
2023-04-20T04:07:39.628Z,42.00
2023-04-20T04:10:09.904Z,39.00
2023-04-20T04:12:39.461Z,45.33
2023-04-20T04:15:09.642Z,42.50
2023-04-20T04:17:39.744Z,36.67
2023-04-20T04:20:09.402Z,34.50
2023-04-20T04:22:37.327Z,34.00
2023-04-20T04:25:07.988Z,36.00
2023-04-20T04:27:40.081Z,33.00
2023-04-20T04:30:11.471Z,35.67
2023-04-20T04:32:42.116Z,34.33
2023-04-20T04:35:11.153Z,35.67
2023-04-20T04:37:41.391Z,49.67
2023-04-20T04:40:11.057Z,28.33
2023-04-20T04:42:39.826Z,26.00
2023-04-20T04:45:10.580Z,22.50
2023-04-20T04:47:41.390Z,27.00
2023-04-20T04:50:11.345Z,24.00
2023-04-20T04:52:40.131Z,22.50
2023-04-20T04:55:10.076Z,25.50
2023-04-20T04:57:38.872Z,22.00
2023-04-20T05:00:09.860Z,23.00
2023-04-20T05:02:38.861Z,22.67
2023-04-20T05:05:10.062Z,22.50
2023-04-20T05:07:40.324Z,27.33
2023-04-20T05:10:09.744Z,26.50
2023-04-20T05:12:40.057Z,25.00
2023-04-20T05:15:10.131Z,25.33
2023-04-20T05:17:39.638Z,27.00
2023-04-20T05:20:10.840Z,26.67
2023-04-20T05:22:40.628Z,31.33
2023-04-20T05:25:12.135Z,32.67
2023-04-20T05:27:42.002Z,32.00
2023-04-20T05:30:20.440Z,30.00
2023-04-20T05:32:52.544Z,24.33
2023-04-20T05:35:22.640Z,29.00
2023-04-20T05:37:52.437Z,26.67
2023-04-20T05:40:21.139Z,24.67
2023-04-20T05:42:50.759Z,26.33
2023-04-20T05:45:19.583Z,26.67
2023-04-20T05:47:58.758Z,23.67
2023-04-20T05:50:28.351Z,23.33
2023-04-20T05:52:58.317Z,23.00
2023-04-20T05:55:27.182Z,26.00
2023-04-20T05:57:56.142Z,21.33
2023-04-20T06:00:26.121Z,22.00
2023-04-20T06:02:55.368Z,21.00
2023-04-20T06:05:25.212Z,22.33
2023-04-20T06:07:54.017Z,21.67
2023-04-20T06:10:23.645Z,21.33
2023-04-20T06:12:52.431Z,24.00
2023-04-20T06:15:22.113Z,25.00
2023-04-20T06:17:50.934Z,23.33
2023-04-20T06:20:20.906Z,21.00
2023-04-20T06:22:50.104Z,22.50
2023-04-20T06:25:18.814Z,25.67
2023-04-20T06:27:49.247Z,21.00
2023-04-20T06:30:18.020Z,20.50
2023-04-20T06:32:46.753Z,21.00
2023-04-20T06:35:15.751Z,25.50
2023-04-20T06:37:44.361Z,21.67
2023-04-20T06:40:16.044Z,19.00
2023-04-20T06:42:45.496Z,20.00
2023-04-20T06:45:14.216Z,18.33
2023-04-20T06:47:42.773Z,13.00
2023-04-20T06:50:11.854Z,18.00
2023-04-20T06:52:41.739Z,19.00
2023-04-20T06:55:11.154Z,18.67
2023-04-20T06:57:39.871Z,21.67
2023-04-20T07:00:11.764Z,23.67
2023-04-20T07:02:49.506Z,14.50
2023-04-20T07:05:19.535Z,19.50
2023-04-20T07:07:48.230Z,19.00
2023-04-20T07:10:17.794Z,18.00
2023-04-20T07:12:46.683Z,17.67
2023-04-20T07:15:15.479Z,18.00
2023-04-20T07:17:44.145Z,16.00
2023-04-20T07:20:13.211Z,18.50
2023-04-20T07:22:41.950Z,17.67
2023-04-20T07:25:11.328Z,18.00
2023-04-20T07:27:41.572Z,16.67
2023-04-20T07:30:12.282Z,18.00
2023-04-20T07:32:41.844Z,14.00
2023-04-20T07:35:11.027Z,12.50
2023-04-20T07:37:40.602Z,16.50
2023-04-20T07:40:10.970Z,16.00
2023-04-20T07:42:39.715Z,16.00
2023-04-20T07:45:11.049Z,17.00
2023-04-20T07:47:40.704Z,21.00
2023-04-20T07:50:09.883Z,18.33
2023-04-20T07:52:38.470Z,11.67
2023-04-20T07:55:08.478Z,16.00
2023-04-20T07:57:37.077Z,10.67
2023-04-20T08:00:07.614Z,17.33
2023-04-20T08:02:37.056Z,16.00
2023-04-20T08:05:07.018Z,15.67
2023-04-20T08:07:36.396Z,16.33
2023-04-20T08:10:07.713Z,16.00
2023-04-20T08:12:35.965Z,16.00
2023-04-20T08:15:06.624Z,15.00
2023-04-20T08:17:35.652Z,17.67
2023-04-20T08:20:06.405Z,16.00
2023-04-20T08:22:35.125Z,19.00
2023-04-20T08:25:03.957Z,11.33
2023-04-20T08:27:35.710Z,15.00
2023-04-20T08:30:05.229Z,16.00
2023-04-20T08:32:33.934Z,16.00
2023-04-20T08:35:01.772Z,14.00
2023-04-20T08:37:32.076Z,14.00
2023-04-20T08:40:00.632Z,13.00
2023-04-20T08:42:28.467Z,15.00
2023-04-20T08:44:59.356Z,16.50
2023-04-20T08:47:29.603Z,15.50
2023-04-20T08:50:01.099Z,19.00
2023-04-20T08:52:28.979Z,14.50
2023-04-20T08:54:58.110Z,14.00
2023-04-20T08:57:26.773Z,7.50
2023-04-20T08:59:56.739Z,14.00
2023-04-20T09:02:25.568Z,12.67
2023-04-20T09:05:08.108Z,16.00
2023-04-20T09:07:36.828Z,12.00
2023-04-20T09:10:06.190Z,11.00
2023-04-20T09:12:43.937Z,11.00
2023-04-20T09:15:24.824Z,15.67
2023-04-20T09:17:53.444Z,13.67
2023-04-20T09:20:35.914Z,5.60
2023-04-20T09:23:19.236Z,12.00
2023-04-20T09:25:53.468Z,9.00
2023-04-20T09:28:21.778Z,6.50
2023-04-20T09:30:51.889Z,12.00
2023-04-20T09:33:20.536Z,10.00
2023-04-20T09:35:49.216Z,13.67
2023-04-20T09:38:25.671Z,10.00
2023-04-20T09:40:53.535Z,15.50
2023-04-20T09:43:25.642Z,14.00
2023-04-20T09:45:59.269Z,9.40
2023-04-20T09:48:27.154Z,13.00
2023-04-20T09:50:57.175Z,9.00
2023-04-20T09:53:26.962Z,15.50
2023-04-20T09:55:56.382Z,11.67
2023-04-20T09:58:24.938Z,11.00
2023-04-20T10:00:52.856Z,12.00
2023-04-20T10:03:22.175Z,6.00
2023-04-20T10:05:52.991Z,11.67
2023-04-20T10:08:24.535Z,13.67
2023-04-20T10:10:53.207Z,12.33
2023-04-20T10:13:23.524Z,9.00
2023-04-20T10:15:51.334Z,8.50
2023-04-20T10:18:25.219Z,15.00
2023-04-20T10:21:09.785Z,8.00
2023-04-20T10:23:50.599Z,13.00
2023-04-20T10:26:19.567Z,12.67
2023-04-20T10:28:48.347Z,12.00
2023-04-20T10:31:17.231Z,14.00
2023-04-20T10:33:56.038Z,11.67
2023-04-20T10:36:37.300Z,11.67
2023-04-20T10:39:23.156Z,10.33
2023-04-20T10:41:58.910Z,10.00
2023-04-20T10:44:29.058Z,9.20
2023-04-20T10:46:57.329Z,9.00
2023-04-20T10:49:31.930Z,10.00
2023-04-20T10:52:00.582Z,9.00
2023-04-20T10:54:39.410Z,7.20
2023-04-20T10:57:09.231Z,11.67
2023-04-20T10:59:39.247Z,11.00
2023-04-20T11:02:13.009Z,8.00
2023-04-20T11:04:40.956Z,8.00
2023-04-20T11:07:13.661Z,7.00
2023-04-20T11:09:43.412Z,8.00
2023-04-20T11:12:14.955Z,7.00
2023-04-20T11:15:03.259Z,9.67
2023-04-20T11:17:37.098Z,8.67
2023-04-20T11:20:11.341Z,7.60
2023-04-20T11:22:42.153Z,10.67
2023-04-20T11:25:13.770Z,7.00
2023-04-20T11:27:43.418Z,6.60
2023-04-20T11:30:12.020Z,7.00
2023-04-20T11:32:41.027Z,7.00
2023-04-20T11:35:12.567Z,7.00
2023-04-20T11:37:53.841Z,7.40
2023-04-20T11:40:22.769Z,7.67
2023-04-20T11:42:51.361Z,10.00
2023-04-20T11:45:19.936Z,8.67
2023-04-20T11:47:49.568Z,8.00
2023-04-20T11:50:18.006Z,8.00
2023-04-20T11:52:46.451Z,4.00
2023-04-20T11:55:16.777Z,7.20
2023-04-20T11:57:46.456Z,8.80
2023-04-20T12:00:18.244Z,7.00
2023-04-20T12:02:47.958Z,8.80
2023-04-20T12:05:16.942Z,5.67
2023-04-20T12:07:46.784Z,8.60
2023-04-20T12:10:16.320Z,8.40
2023-04-20T12:12:45.881Z,8.20
2023-04-20T12:15:15.604Z,7.40
2023-04-20T12:17:45.613Z,8.40
2023-04-20T12:20:15.540Z,6.60
2023-04-20T12:22:45.138Z,8.80
2023-04-20T12:25:14.760Z,8.00
2023-04-20T12:27:44.452Z,14.33
2023-04-20T12:30:14.185Z,9.00
2023-04-20T12:32:42.740Z,8.00
2023-04-20T12:35:12.312Z,8.00
2023-04-20T12:37:41.878Z,7.00
2023-04-20T12:40:12.382Z,7.80
2023-04-20T12:42:41.911Z,7.40
2023-04-20T12:45:11.861Z,6.00
2023-04-20T12:47:41.422Z,8.20
2023-04-20T12:50:11.935Z,6.00
2023-04-20T12:52:40.604Z,8.00
2023-04-20T12:55:11.454Z,8.00
2023-04-20T12:57:40.044Z,7.33
2023-04-20T13:00:11.603Z,7.40
2023-04-20T13:02:41.899Z,6.67
2023-04-20T13:05:12.354Z,7.00
2023-04-20T13:07:41.952Z,6.40
2023-04-20T13:10:10.938Z,8.00
2023-04-20T13:12:39.580Z,8.00
2023-04-20T13:15:10.015Z,7.00
2023-04-20T13:17:39.676Z,5.00
2023-04-20T13:20:09.404Z,8.00
2023-04-20T13:22:50.477Z,5.80
2023-04-20T13:25:25.803Z,7.00
2023-04-20T13:27:58.037Z,7.33
2023-04-20T13:30:26.989Z,7.00
2023-04-20T13:32:56.715Z,6.00
2023-04-20T13:35:26.945Z,7.00
2023-04-20T13:37:58.215Z,7.67
2023-04-20T13:40:27.899Z,6.67
2023-04-20T13:42:57.775Z,5.00
2023-04-20T13:45:28.244Z,5.60
2023-04-20T13:47:58.141Z,5.40
2023-04-20T13:50:27.747Z,5.20
2023-04-20T13:52:56.301Z,4.00
2023-04-20T13:55:26.765Z,8.33
2023-04-20T13:57:56.781Z,7.00
2023-04-20T14:00:26.729Z,7.20
2023-04-20T14:02:56.513Z,7.40
2023-04-20T14:05:25.040Z,5.33
2023-04-20T14:07:54.713Z,6.00
2023-04-20T14:10:24.201Z,5.20
2023-04-20T14:12:54.032Z,6.20
2023-04-20T14:15:25.617Z,6.43
2023-04-20T14:17:54.195Z,8.67
2023-04-20T14:20:22.849Z,4.67
2023-04-20T14:22:53.573Z,6.00
2023-04-20T14:25:21.617Z,8.50
2023-04-20T14:27:51.193Z,5.00
2023-04-20T14:30:19.800Z,7.00
2023-04-20T14:33:01.336Z,2.00
2023-04-20T14:35:32.624Z,6.29
2023-04-20T14:38:02.178Z,7.20
2023-04-20T14:40:32.463Z,6.80
2023-04-20T14:43:02.011Z,7.00
2023-04-20T14:45:31.563Z,5.00
2023-04-20T14:48:01.269Z,6.60
2023-04-20T14:50:32.833Z,30.33
2023-04-20T14:53:00.580Z,7.50
2023-04-20T14:55:28.970Z,1.00
2023-04-20T14:57:59.173Z,8.60
2023-04-20T15:00:28.487Z,6.00
2023-04-20T15:02:57.604Z,7.00
2023-04-20T15:05:28.336Z,6.67
2023-04-20T15:07:59.920Z,6.14
2023-04-20T15:10:27.806Z,8.00
2023-04-20T15:12:56.500Z,16.00
2023-04-20T15:15:25.472Z,5.00
2023-04-20T15:17:55.935Z,4.00
2023-04-20T15:20:25.603Z,39.33
2023-04-20T15:22:54.491Z,33.67
2023-04-20T15:25:24.145Z,36.33
2023-04-20T15:27:53.712Z,53.00
2023-04-20T15:30:22.535Z,43.33
2023-04-20T15:32:51.422Z,17.67
2023-04-20T15:35:20.194Z,8.00
2023-04-20T15:37:47.972Z,11.00
2023-04-20T15:40:21.538Z,7.75
2023-04-20T15:42:49.694Z,15.00
2023-04-20T15:45:18.538Z,28.33
2023-04-20T15:47:48.303Z,19.67
2023-04-20T15:50:18.118Z,24.00
2023-04-20T15:52:49.908Z,30.00
2023-04-20T15:55:18.279Z,15.50
2023-04-20T15:57:46.959Z,18.00
2023-04-20T16:00:16.490Z,19.33
2023-04-20T16:02:45.249Z,17.50
2023-04-20T16:05:14.817Z,20.33
2023-04-20T16:07:44.311Z,20.00
2023-04-20T16:10:13.078Z,29.33
2023-04-20T16:12:42.677Z,24.67
2023-04-20T16:15:12.275Z,27.67
2023-04-20T16:17:41.876Z,39.00
2023-04-20T16:20:11.325Z,35.00
2023-04-20T16:22:40.351Z,33.67
2023-04-20T16:25:12.567Z,30.33
2023-04-20T16:27:42.063Z,25.67
2023-04-20T16:30:11.927Z,30.00
2023-04-20T16:32:41.664Z,35.00
2023-04-20T16:35:10.883Z,26.67
2023-04-20T16:37:40.366Z,25.67
2023-04-20T16:40:10.284Z,26.00
2023-04-20T16:42:38.094Z,15.00
2023-04-20T16:45:07.983Z,11.00
2023-04-20T16:47:36.682Z,13.67
2023-04-20T16:50:07.781Z,10.20
2023-04-20T16:52:36.904Z,11.00
2023-04-20T16:55:05.146Z,8.00
2023-04-20T16:57:33.628Z,9.67
2023-04-20T17:00:01.384Z,7.00
2023-04-20T17:02:33.287Z,12.00
2023-04-20T17:05:04.567Z,32.67
2023-04-20T17:07:33.349Z,27.00
2023-04-20T17:10:01.244Z,20.00
2023-04-20T17:12:30.573Z,11.33
2023-04-20T17:14:59.141Z,10.33
2023-04-20T17:17:28.409Z,12.00
2023-04-20T17:19:58.446Z,14.00
2023-04-20T17:22:27.282Z,24.67
2023-04-20T17:24:55.996Z,19.00
2023-04-20T17:27:23.776Z,13.00
2023-04-20T17:29:53.368Z,8.80
2023-04-20T17:32:22.212Z,9.00
2023-04-20T17:34:51.568Z,9.00
2023-04-20T17:37:21.484Z,11.00
2023-04-20T17:39:49.273Z,11.00
2023-04-20T17:42:18.352Z,12.00
2023-04-20T17:44:46.137Z,12.00
2023-04-20T17:47:15.121Z,12.33
2023-04-20T17:49:44.114Z,12.00
2023-04-20T17:52:15.352Z,10.00
2023-04-20T17:54:43.232Z,11.00
2023-04-20T17:57:11.042Z,6.50
2023-04-20T17:59:45.529Z,8.00
2023-04-20T18:02:14.159Z,9.00
2023-04-20T18:04:42.361Z,9.00
2023-04-20T18:07:14.757Z,14.00
2023-04-20T18:09:45.557Z,25.50
2023-04-20T18:12:14.211Z,16.67
2023-04-20T18:14:43.971Z,13.00
2023-04-20T18:17:14.556Z,17.00
2023-04-20T18:19:42.431Z,11.00
2023-04-20T18:22:11.184Z,10.33
2023-04-20T18:24:40.856Z,8.40
2023-04-20T18:27:10.285Z,18.00
2023-04-20T18:29:39.192Z,27.33
2023-04-20T18:32:08.282Z,28.00
2023-04-20T18:34:37.840Z,40.67
2023-04-20T18:37:07.795Z,40.00
2023-04-20T18:39:38.016Z,39.33
2023-04-20T18:42:06.755Z,35.33
2023-04-20T18:44:36.365Z,39.00
2023-04-20T18:47:06.066Z,35.67
2023-04-20T18:49:35.188Z,35.00
2023-04-20T18:52:04.963Z,32.00
2023-04-20T18:54:33.768Z,31.00
2023-04-20T18:57:02.993Z,30.67
2023-04-20T18:59:32.600Z,38.00
2023-04-20T19:02:01.544Z,42.33
2023-04-20T19:04:31.219Z,22.33
2023-04-20T19:06:59.956Z,25.33
2023-04-20T19:09:28.608Z,22.00
2023-04-20T19:11:58.772Z,22.33
2023-04-20T19:14:27.605Z,24.00
2023-04-20T19:16:56.308Z,25.67
2023-04-20T19:19:25.917Z,24.00
2023-04-20T19:21:54.655Z,20.00
2023-04-20T19:24:24.186Z,22.00
2023-04-20T19:26:53.693Z,25.00
2023-04-20T19:29:23.194Z,27.00
2023-04-20T19:31:52.429Z,32.00
2023-04-20T19:34:22.471Z,35.67
2023-04-20T19:36:53.915Z,36.00
2023-04-20T19:39:23.461Z,38.00
2023-04-20T19:41:53.137Z,45.00
2023-04-20T19:44:23.429Z,41.00
2023-04-20T19:46:52.376Z,41.67
2023-04-20T19:49:21.920Z,29.33
2023-04-20T19:51:50.624Z,28.33
2023-04-20T19:54:20.205Z,28.67
2023-04-20T19:56:49.165Z,32.00
2023-04-20T19:59:19.347Z,32.33
2023-04-20T20:01:50.671Z,35.00
2023-04-20T20:04:20.697Z,33.00
2023-04-20T20:06:50.963Z,31.00
2023-04-20T20:09:23.149Z,3.25
2023-04-20T20:11:52.787Z,32.67
2023-04-20T20:14:21.568Z,34.00
2023-04-20T20:16:50.309Z,31.00
2023-04-20T20:19:22.158Z,27.00
2023-04-20T20:21:51.825Z,30.33
2023-04-20T20:24:23.034Z,27.33
2023-04-20T20:26:52.555Z,27.00
2023-04-20T20:29:23.142Z,26.33
2023-04-20T20:31:51.966Z,23.00
2023-04-20T20:34:20.839Z,22.00
2023-04-20T20:36:51.448Z,22.00
2023-04-20T20:39:21.248Z,26.00
2023-04-20T20:41:51.561Z,28.00
2023-04-20T20:44:21.218Z,27.67
2023-04-20T20:46:49.918Z,32.67
2023-04-20T20:49:18.842Z,30.00
2023-04-20T20:51:48.458Z,26.33
2023-04-20T20:54:17.991Z,25.33
2023-04-20T20:56:47.538Z,23.67
2023-04-20T20:59:16.414Z,24.33
2023-04-20T21:01:46.198Z,24.00
2023-04-20T21:04:15.004Z,22.00
2023-04-20T21:06:43.752Z,21.00
2023-04-20T21:09:12.523Z,21.00
2023-04-20T21:11:41.188Z,21.00
2023-04-20T21:14:09.961Z,19.50
2023-04-20T21:16:38.795Z,19.00
2023-04-20T21:19:07.604Z,21.50
2023-04-20T21:21:37.109Z,21.33
2023-04-20T21:24:05.987Z,31.00
2023-04-20T21:26:38.496Z,18.00
2023-04-20T21:29:07.569Z,19.50
2023-04-20T21:31:36.307Z,24.00
2023-04-20T21:34:04.180Z,14.50
2023-04-20T21:36:33.339Z,14.67
2023-04-20T21:39:02.078Z,17.00
2023-04-20T21:41:32.352Z,18.50
2023-04-20T21:44:01.471Z,15.00
2023-04-20T21:46:30.637Z,18.00
2023-04-20T21:48:59.403Z,17.50
2023-04-20T21:51:28.002Z,19.50
2023-04-20T21:53:55.923Z,20.00
2023-04-20T21:56:24.629Z,17.50
2023-04-20T21:58:53.470Z,18.33
2023-04-20T22:01:21.373Z,14.50
2023-04-20T22:03:50.329Z,16.67
2023-04-20T22:06:18.281Z,17.50
2023-04-20T22:08:46.198Z,17.00
2023-04-20T22:11:14.336Z,17.50
2023-04-20T22:13:42.174Z,22.50
2023-04-20T22:16:10.968Z,14.33
2023-04-20T22:18:39.692Z,16.33
2023-04-20T22:21:08.446Z,15.67
2023-04-20T22:23:37.151Z,16.33
2023-04-20T22:26:06.158Z,14.00
2023-04-20T22:28:34.039Z,16.00
2023-04-20T22:31:02.762Z,15.67
2023-04-20T22:33:30.580Z,14.00
2023-04-20T22:35:58.449Z,15.00
2023-04-20T22:38:27.176Z,11.67
2023-04-20T22:40:55.922Z,12.00
2023-04-20T22:43:24.815Z,17.00
2023-04-20T22:45:56.068Z,17.00
2023-04-20T22:48:24.647Z,12.33
2023-04-20T22:50:53.614Z,14.00
2023-04-20T22:53:22.394Z,13.33
2023-04-20T22:55:50.258Z,15.00
2023-04-20T22:58:18.968Z,17.00
2023-04-20T23:00:46.912Z,15.50
2023-04-20T23:03:14.842Z,17.50
2023-04-20T23:05:44.625Z,16.00
2023-04-20T23:08:13.809Z,10.50
2023-04-20T23:10:42.472Z,15.00
2023-04-20T23:13:17.078Z,14.00
2023-04-20T23:15:46.116Z,16.00
2023-04-20T23:18:13.920Z,13.00
2023-04-20T23:20:42.448Z,13.33
2023-04-20T23:23:11.838Z,15.67
2023-04-20T23:25:40.534Z,14.00
2023-04-20T23:28:09.199Z,13.33
2023-04-20T23:30:37.154Z,15.00
2023-04-20T23:33:05.091Z,13.00
2023-04-20T23:35:33.412Z,16.00
2023-04-20T23:38:02.450Z,15.67
2023-04-20T23:40:31.435Z,13.00
2023-04-20T23:42:59.244Z,13.00
2023-04-20T23:45:28.019Z,14.67
2023-04-20T23:47:56.689Z,14.33
2023-04-20T23:50:24.595Z,15.00
2023-04-20T23:52:52.428Z,14.50
2023-04-20T23:55:21.254Z,16.00
2023-04-20T23:57:49.130Z,17.00
